createdAt,value
2023-05-14T00:06:07.959Z,81.93
2023-05-14T00:16:12.143Z,82.12
2023-05-14T00:26:14.534Z,82.21
2023-05-14T00:36:18.266Z,82.69
2023-05-14T00:46:20.771Z,82.45
2023-05-14T00:56:24.854Z,82.95
2023-05-14T01:06:32.482Z,83.33
2023-05-14T01:16:38.347Z,83.10
2023-05-14T01:26:42.110Z,83.58
2023-05-14T01:36:44.847Z,83.84
2023-05-14T01:46:48.552Z,83.82
2023-05-14T01:56:51.168Z,83.87
2023-05-14T02:06:54.921Z,83.43
2023-05-14T02:16:57.345Z,83.38
2023-05-14T02:27:01.215Z,82.96
2023-05-14T02:37:03.824Z,83.74
2023-05-14T02:47:07.864Z,83.97
2023-05-14T02:57:10.303Z,83.72
2023-05-14T03:07:14.184Z,84.48
2023-05-14T03:17:16.686Z,84.13
2023-05-14T03:27:20.844Z,84.01
2023-05-14T03:37:23.395Z,84.24
2023-05-14T03:47:27.168Z,83.99
2023-05-14T03:57:29.594Z,83.99
2023-05-14T04:07:33.296Z,84.11
2023-05-14T04:17:35.727Z,84.07
2023-05-14T04:27:39.459Z,83.86
2023-05-14T04:37:41.834Z,84.05
2023-05-14T04:47:45.905Z,84.36
2023-05-14T04:57:49.202Z,83.75
2023-05-14T05:07:52.940Z,83.53
2023-05-14T05:17:55.383Z,83.99
2023-05-14T05:27:59.169Z,83.75
2023-05-14T05:38:01.965Z,83.57
2023-05-14T05:48:06.188Z,82.70
2023-05-14T05:58:08.644Z,83.25
2023-05-14T06:08:12.418Z,83.26
2023-05-14T06:18:14.779Z,84.81
2023-05-14T06:28:18.572Z,85.08
2023-05-14T06:38:20.924Z,85.57
2023-05-14T06:48:24.716Z,85.94
2023-05-14T06:58:27.182Z,85.09
2023-05-14T07:08:30.902Z,85.31
2023-05-14T07:18:33.323Z,86.09
2023-05-14T07:28:37.090Z,84.36
2023-05-14T07:38:39.474Z,84.83
2023-05-14T07:48:43.216Z,85.32
2023-05-14T07:58:46.201Z,84.90
2023-05-14T08:08:49.905Z,84.17
2023-05-14T08:18:52.455Z,83.93
2023-05-14T08:28:56.257Z,83.19
2023-05-14T08:38:58.639Z,82.08
2023-05-14T08:49:06.143Z,82.05
2023-05-14T08:59:08.532Z,81.29
2023-05-14T09:09:13.049Z,81.98
2023-05-14T09:19:16.002Z,78.77
2023-05-14T09:29:20.004Z,79.67
2023-05-14T09:39:23.680Z,76.67
2023-05-14T09:49:27.381Z,75.16
2023-05-14T09:59:29.770Z,74.11
2023-05-14T10:09:33.483Z,72.61
2023-05-14T10:19:36.875Z,70.69
2023-05-14T10:29:41.971Z,69.49
2023-05-14T10:39:45.370Z,69.09
2023-05-14T10:49:50.029Z,68.37
2023-05-14T10:59:54.849Z,65.65
2023-05-14T11:10:00.902Z,66.96
2023-05-14T11:20:05.022Z,64.49
2023-05-14T11:30:13.194Z,61.38
2023-05-14T11:40:16.473Z,61.86
2023-05-14T11:50:20.711Z,61.12
2023-05-14T12:00:24.636Z,59.91
2023-05-14T12:10:28.608Z,61.50
2023-05-14T12:20:30.995Z,62.09
2023-05-14T12:30:39.368Z,57.82
2023-05-14T12:40:44.572Z,57.67
2023-05-14T12:50:48.772Z,60.80
2023-05-14T13:00:53.023Z,61.60
2023-05-14T13:10:57.020Z,61.95
2023-05-14T13:20:59.392Z,64.42
2023-05-14T13:31:07.501Z,63.96
2023-05-14T13:41:09.968Z,60.89
2023-05-14T13:51:13.776Z,57.59
2023-05-14T14:01:16.363Z,59.85
2023-05-14T14:11:20.635Z,60.09
2023-05-14T14:21:23.086Z,59.53
2023-05-14T14:31:26.887Z,59.01
2023-05-14T14:41:29.343Z,59.41
2023-05-14T14:51:33.160Z,60.87
2023-05-14T15:01:35.675Z,62.26
2023-05-14T15:11:39.587Z,63.82
2023-05-14T15:21:41.983Z,61.75
2023-05-14T15:31:46.144Z,63.03
2023-05-14T15:41:48.527Z,61.10
2023-05-14T15:51:52.258Z,67.65
2023-05-14T16:01:54.727Z,68.78
2023-05-14T16:11:58.502Z,67.60
2023-05-14T16:22:00.945Z,67.11
2023-05-14T16:32:04.788Z,66.55
2023-05-14T16:42:07.200Z,70.13
2023-05-14T16:52:10.949Z,70.47
2023-05-14T17:02:13.467Z,69.73
2023-05-14T17:12:17.174Z,72.85
2023-05-14T17:22:19.654Z,73.25
2023-05-14T17:32:23.455Z,74.33
2023-05-14T17:42:26.107Z,74.03
2023-05-14T17:52:29.849Z,75.19
2023-05-14T18:02:32.278Z,74.96
2023-05-14T18:12:36.025Z,73.83
2023-05-14T18:22:38.466Z,77.00
2023-05-14T18:32:43.591Z,78.92
2023-05-14T18:42:46.179Z,77.48
2023-05-14T18:52:49.893Z,78.69
2023-05-14T19:02:52.400Z,79.18
2023-05-14T19:12:56.295Z,79.79
2023-05-14T19:22:59.703Z,80.54
2023-05-14T19:33:03.483Z,80.36
2023-05-14T19:43:07.796Z,81.09
2023-05-14T19:53:11.518Z,81.22
2023-05-14T20:03:14.036Z,80.38
2023-05-14T20:13:17.886Z,81.14
2023-05-14T20:23:20.699Z,81.05
2023-05-14T20:33:24.521Z,81.08
2023-05-14T20:43:27.318Z,81.45
2023-05-14T20:53:31.123Z,80.49
2023-05-14T21:03:33.641Z,80.52
2023-05-14T21:13:37.506Z,79.92
2023-05-14T21:23:40.012Z,80.23
2023-05-14T21:33:43.736Z,80.93
2023-05-14T21:43:46.833Z,80.77
2023-05-14T21:53:50.570Z,84.11
2023-05-14T22:03:53.368Z,81.99
2023-05-14T22:13:57.869Z,82.91
2023-05-14T22:24:00.330Z,82.66
2023-05-14T22:34:04.062Z,81.59
2023-05-14T22:44:06.475Z,81.28
2023-05-14T22:54:10.913Z,81.57
2023-05-14T23:04:13.374Z,81.40
2023-05-14T23:14:17.834Z,81.58
2023-05-14T23:24:20.259Z,81.26
2023-05-14T23:34:24.012Z,80.69
2023-05-14T23:44:26.409Z,80.66
2023-05-14T23:54:30.184Z,80.28
